Time;durP1;ratioP1;P1;durP2;ratioP2;P2;SDS_P1;SDS_P2;PMS_P1;PMS_P2;Temp;Humidity;BMP_temperature;BMP_pressure;BME280_temperature;BME280_humidity;BME280_pressure;Samples;Min_cycle;Max_cycle;Signal;HPM_P1;HPM_P2
2021/03/26 00:01:27;;;;;;;29.37;22.77;;;8.80;99.90;;;;;;4996758;28;20234;-53
2021/03/26 00:03:57;;;;;;;29.00;22.90;;;8.80;99.90;;;;;;5015580;28;20241;-52
2021/03/26 00:06:31;;;;;;;30.40;22.83;;;8.80;99.90;;;;;;5009995;28;20316;-56
2021/03/26 00:08:59;;;;;;;31.93;24.33;;;8.80;99.90;;;;;;5011071;28;20638;-57
2021/03/26 00:11:30;;;;;;;30.77;22.87;;;8.70;99.90;;;;;;5009134;28;20325;-57
2021/03/26 00:13:58;;;;;;;33.13;24.90;;;8.70;99.90;;;;;;5011664;28;20240;-54
2021/03/26 00:16:26;;;;;;;33.23;23.30;;;8.60;99.90;;;;;;5009393;28;20612;-54
2021/03/26 00:18:55;;;;;;;35.23;24.47;;;8.60;99.90;;;;;;4991473;28;20237;-52
2021/03/26 00:21:24;;;;;;;30.90;23.10;;;8.60;99.90;;;;;;4991471;28;20285;-56
2021/03/26 00:23:52;;;;;;;32.90;23.33;;;8.50;99.90;;;;;;4991437;28;20292;-55
2021/03/26 00:26:20;;;;;;;33.10;24.50;;;8.50;99.90;;;;;;4996725;28;20245;-56
2021/03/26 00:28:48;;;;;;;36.30;24.53;;;8.50;99.90;;;;;;4997076;28;20244;-57
2021/03/26 00:31:16;;;;;;;34.87;23.57;;;8.50;99.90;;;;;;4998613;28;20279;-56
2021/03/26 00:33:43;;;;;;;34.27;24.87;;;8.50;99.90;;;;;;5018258;28;20245;-52
2021/03/26 00:36:13;;;;;;;36.57;24.10;;;8.40;99.90;;;;;;5030580;28;20271;-56
2021/03/26 00:38:40;;;;;;;34.00;23.93;;;8.40;99.90;;;;;;5030187;28;20241;-56
2021/03/26 00:41:08;;;;;;;34.80;25.03;;;8.40;99.90;;;;;;5015723;28;20308;-55
2021/03/26 00:43:36;;;;;;;33.97;23.83;;;8.30;99.90;;;;;;4991592;28;20234;-55
2021/03/26 00:46:05;;;;;;;33.90;23.57;;;8.30;99.90;;;;;;4991256;28;20230;-55
2021/03/26 00:48:32;;;;;;;36.53;25.70;;;8.30;99.90;;;;;;4990965;28;20590;-55
2021/03/26 00:51:02;;;;;;;35.63;24.33;;;8.30;99.90;;;;;;5023403;28;20257;-55
2021/03/26 00:53:33;;;;;;;33.90;23.27;;;8.20;99.90;;;;;;5004787;28;20246;-56
2021/03/26 00:56:05;;;;;;;36.07;22.93;;;8.20;99.90;;;;;;4999260;28;20613;-56
2021/03/26 00:58:33;;;;;;;33.40;23.43;;;8.20;99.90;;;;;;5001655;28;20246;-56
2021/03/26 01:01:01;;;;;;;31.13;21.53;;;8.20;99.90;;;;;;4984579;28;20595;-56
2021/03/26 01:03:30;;;;;;;29.73;22.77;;;8.10;99.90;;;;;;4995562;28;20330;-53
2021/03/26 01:06:01;;;;;;;32.07;23.10;;;8.10;99.90;;;;;;4998708;28;20249;-56
2021/03/26 01:08:30;;;;;;;32.13;23.03;;;8.10;99.90;;;;;;5005705;28;20586;-52
2021/03/26 01:11:09;;;;;;;31.83;22.27;;;8.00;99.90;;;;;;4983665;28;20694;-56
2021/03/26 01:13:36;;;;;;;29.83;22.17;;;8.00;99.90;;;;;;4990689;28;20242;-56
2021/03/26 01:16:06;;;;;;;34.93;22.40;;;8.00;99.90;;;;;;4989175;28;20238;-56
2021/03/26 01:18:38;;;;;;;34.00;23.00;;;8.00;99.90;;;;;;4989327;28;20230;-55
2021/03/26 01:21:13;;;;;;;30.30;21.77;;;7.90;99.90;;;;;;5025000;28;20245;-54
2021/03/26 01:23:43;;;;;;;30.83;21.87;;;7.90;99.90;;;;;;5009923;28;20244;-56
2021/03/26 01:26:11;;;;;;;32.30;22.67;;;7.90;99.90;;;;;;4991039;28;20241;-54
2021/03/26 01:28:43;;;;;;;30.13;21.73;;;7.90;99.90;;;;;;5002908;28;20234;-56
2021/03/26 01:31:41;;;;;;;27.34;19.46;;;7.90;99.90;;;;;;3515738;28;10021469;-55
2021/03/26 01:34:08;;;;;;;31.17;21.97;;;7.80;99.90;;;;;;2939925;28;10001835;-55
2021/03/26 01:36:41;;;;;;;31.37;22.83;;;7.80;99.90;;;;;;4988918;28;20484;-53
2021/03/26 01:39:12;;;;;;;31.77;22.03;;;7.80;99.90;;;;;;4990239;28;20234;-57
2021/03/26 01:41:48;;;;;;;31.87;21.90;;;7.70;99.90;;;;;;4988618;28;20641;-53
2021/03/26 01:44:20;;;;;;;32.30;22.17;;;7.70;99.90;;;;;;4979011;28;20321;-52
2021/03/26 01:46:50;;;;;;;32.13;22.23;;;7.70;99.90;;;;;;4970665;28;20234;-56
2021/03/26 01:49:21;;;;;;;29.50;21.97;;;7.60;99.90;;;;;;4985088;28;20722;-54
2021/03/26 01:51:54;;;;;;;30.63;21.87;;;7.60;99.90;;;;;;4994314;28;20226;-52
2021/03/26 01:54:23;;;;;;;30.50;22.07;;;7.60;99.90;;;;;;5006604;28;20233;-52
2021/03/26 01:56:53;;;;;;;31.10;21.60;;;7.60;99.90;;;;;;5009372;28;20237;-53
2021/03/26 01:59:44;;;;;;;29.90;22.03;;;7.50;99.90;;;;;;4995717;28;20233;-55
2021/03/26 02:02:21;;;;;;;33.93;22.93;;;7.50;99.90;;;;;;5007490;28;20245;-55
2021/03/26 02:05:21;;;;;;;31.87;22.70;;;7.40;99.90;;;;;;5005210;28;20249;-54
2021/03/26 02:07:57;;;;;;;36.60;24.13;;;7.40;99.90;;;;;;5007831;28;20375;-54
2021/03/26 02:10:32;;;;;;;34.33;23.60;;;7.40;99.90;;;;;;5007194;28;20287;-56
2021/03/26 02:13:05;;;;;;;33.17;24.13;;;7.30;99.90;;;;;;5003030;28;20233;-55
2021/03/26 02:15:41;;;;;;;34.33;24.57;;;7.30;99.90;;;;;;5024376;28;20254;-53
2021/03/26 02:18:18;;;;;;;32.83;23.53;;;7.30;99.90;;;;;;4984438;28;20245;-56
2021/03/26 02:20:52;;;;;;;32.83;23.30;;;7.30;99.90;;;;;;4998690;28;20241;-55
2021/03/26 02:23:23;;;;;;;39.80;26.43;;;7.30;99.90;;;;;;5001931;28;20776;-55
2021/03/26 02:26:03;;;;;;;36.83;25.97;;;7.20;99.90;;;;;;4998822;28;20241;-53
2021/03/26 02:28:31;;;;;;;37.37;24.67;;;7.20;99.90;;;;;;5012156;28;20304;-56
2021/03/26 02:31:19;;;;;;;37.67;26.83;;;7.20;99.90;;;;;;4988301;28;20317;-54
2021/03/26 02:33:47;;;;;;;39.40;26.60;;;7.20;99.90;;;;;;5004610;28;20751;-56
2021/03/26 02:36:40;;;;;;;38.60;26.80;;;7.20;99.90;;;;;;5004315;28;20317;-52
2021/03/26 02:39:28;;;;;;;44.17;29.97;;;7.20;99.90;;;;;;4983935;28;20245;-55
2021/03/26 02:42:03;;;;;;;39.00;27.57;;;7.10;99.90;;;;;;4988820;28;20229;-56
2021/03/26 02:44:53;;;;;;;40.30;29.17;;;7.10;99.90;;;;;;4976190;28;20245;-55
2021/03/26 02:47:36;;;;;;;42.87;28.63;;;7.10;99.90;;;;;;5038423;28;20236;-52
2021/03/26 02:50:28;;;;;;;46.07;30.50;;;7.10;99.90;;;;;;4996565;28;20232;-56
2021/03/26 02:53:08;;;;;;;44.50;30.03;;;7.10;99.90;;;;;;5005455;28;20243;-52
2021/03/26 02:55:43;;;;;;;47.10;30.50;;;7.10;99.90;;;;;;5011952;28;20237;-54
2021/03/26 02:58:19;;;;;;;49.23;31.07;;;7.10;99.90;;;;;;5012020;28;20720;-54
2021/03/26 03:01:04;;;;;;;46.03;31.57;;;7.00;99.90;;;;;;5022354;28;20652;-54
2021/03/26 03:03:34;;;;;;;46.27;31.23;;;7.10;99.90;;;;;;5003230;28;20240;-55
2021/03/26 03:06:09;;;;;;;50.43;32.47;;;7.00;99.90;;;;;;5006988;28;20299;-55
2021/03/26 03:09:16;;;;;;;49.07;31.93;;;7.00;99.90;;;;;;5024338;28;20664;-56
2021/03/26 03:11:50;;;;;;;49.43;32.63;;;7.00;99.90;;;;;;5007836;28;20324;-54
2021/03/26 03:14:24;;;;;;;48.27;32.07;;;7.00;99.90;;;;;;5004600;28;20243;-55
2021/03/26 03:17:00;;;;;;;52.33;32.30;;;7.00;99.90;;;;;;4999227;28;20621;-55
2021/03/26 03:19:39;;;;;;;44.97;31.17;;;7.00;99.90;;;;;;5004669;28;20724;-55
2021/03/26 03:22:13;;;;;;;45.30;31.30;;;7.00;99.90;;;;;;4994045;28;20257;-53
2021/03/26 03:24:44;;;;;;;47.63;30.97;;;7.00;99.90;;;;;;4984311;28;20244;-53
2021/03/26 03:27:34;;;;;;;48.07;33.03;;;6.90;99.90;;;;;;5006871;28;20245;-55
2021/03/26 03:30:16;;;;;;;50.00;33.37;;;6.90;99.90;;;;;;5006036;28;20233;-55
2021/03/26 03:33:00;;;;;;;50.20;32.97;;;6.90;99.90;;;;;;5022581;28;20240;-56
2021/03/26 03:35:39;;;;;;;51.97;34.77;;;6.90;99.90;;;;;;5008113;28;20236;-56
2021/03/26 03:38:34;;;;;;;49.13;33.93;;;6.80;99.90;;;;;;5006518;28;20432;-53
2021/03/26 03:41:09;;;;;;;47.13;32.87;;;6.80;99.90;;;;;;5008467;28;20287;-53
2021/03/26 03:43:52;;;;;;;49.30;32.87;;;6.80;99.90;;;;;;5015484;28;20313;-54
2021/03/26 03:46:26;;;;;;;54.27;33.33;;;6.80;99.90;;;;;;5016941;28;20236;-56
2021/03/26 03:49:20;;;;;;;54.10;33.97;;;6.80;99.90;;;;;;4999160;28;20248;-52
2021/03/26 03:51:55;;;;;;;49.73;34.23;;;6.80;99.90;;;;;;4999000;28;20234;-54
2021/03/26 03:54:32;;;;;;;53.43;35.63;;;6.70;99.90;;;;;;5022796;28;20256;-53
2021/03/26 03:57:04;;;;;;;51.03;34.37;;;6.70;99.90;;;;;;4991021;28;20233;-56
2021/03/26 03:59:39;;;;;;;51.50;34.73;;;6.80;99.90;;;;;;4989976;28;20602;-52
2021/03/26 04:02:21;;;;;;;56.47;36.43;;;6.70;99.90;;;;;;4989880;28;20245;-52
2021/03/26 04:04:58;;;;;;;52.83;34.70;;;6.70;99.90;;;;;;5007262;28;20229;-55
2021/03/26 04:07:33;;;;;;;51.33;35.03;;;6.70;99.90;;;;;;5000114;28;20644;-53
2021/03/26 04:10:08;;;;;;;54.47;35.80;;;6.70;99.90;;;;;;5009669;28;20247;-53
2021/03/26 04:12:42;;;;;;;51.17;34.37;;;6.70;99.90;;;;;;5011145;28;20225;-54
2021/03/26 04:15:26;;;;;;;53.77;35.23;;;6.70;99.90;;;;;;5006733;28;20287;-55
2021/03/26 04:18:03;;;;;;;54.77;36.00;;;6.60;99.90;;;;;;4998171;28;20265;-55
2021/03/26 04:21:00;;;;;;;60.60;36.27;;;6.70;99.90;;;;;;4996884;28;20238;-55
2021/03/26 04:23:44;;;;;;;53.80;35.40;;;6.60;99.90;;;;;;5026405;28;20228;-54
2021/03/26 04:26:26;;;;;;;56.97;35.93;;;6.60;99.90;;;;;;4998491;28;20292;-55
2021/03/26 04:29:20;;;;;;;54.07;35.57;;;6.60;99.90;;;;;;4991032;28;20244;-54
2021/03/26 04:32:00;;;;;;;56.27;35.53;;;6.60;99.90;;;;;;5021005;28;20652;-55
2021/03/26 04:34:31;;;;;;;56.30;35.77;;;6.50;99.90;;;;;;5026242;28;20736;-55
2021/03/26 04:37:05;;;;;;;56.23;35.20;;;6.50;99.90;;;;;;5009890;28;20237;-52
2021/03/26 04:39:54;;;;;;;56.47;36.47;;;6.50;99.90;;;;;;5024862;28;20241;-54
2021/03/26 04:42:31;;;;;;;58.00;37.23;;;6.50;99.90;;;;;;5010868;28;20248;-55
2021/03/26 04:45:10;;;;;;;55.67;36.57;;;6.50;99.90;;;;;;5023755;28;20233;-54
2021/03/26 04:48:00;;;;;;;54.60;36.13;;;6.50;99.90;;;;;;4999151;28;20233;-52
2021/03/26 04:51:14;;;;;;;56.83;36.50;;;6.50;99.90;;;;;;5012229;28;20611;-54
2021/03/26 04:54:17;;;;;;;55.30;35.03;;;6.40;99.90;;;;;;5010816;28;20237;-52
2021/03/26 04:56:57;;;;;;;53.73;35.50;;;6.40;99.90;;;;;;4999483;28;20320;-55
2021/03/26 04:59:38;;;;;;;53.83;35.87;;;6.40;99.90;;;;;;4988971;28;20736;-56
2021/03/26 05:02:16;;;;;;;60.77;37.67;;;6.40;99.90;;;;;;4990541;28;20333;-55
2021/03/26 05:04:55;;;;;;;56.70;37.23;;;6.40;99.90;;;;;;4989738;28;20256;-55
2021/03/26 05:07:37;;;;;;;57.27;37.30;;;6.40;99.90;;;;;;5009312;28;20221;-54
2021/03/26 05:10:12;;;;;;;56.13;35.07;;;6.40;99.90;;;;;;4990190;28;20241;-56
2021/03/26 05:12:50;;;;;;;55.17;36.40;;;6.40;99.90;;;;;;5001372;28;20230;-55
2021/03/26 05:15:41;;;;;;;55.57;35.60;;;6.40;99.90;;;;;;4996639;28;20346;-54
2021/03/26 05:18:25;;;;;;;56.57;35.83;;;6.40;99.90;;;;;;5018036;28;20244;-54
2021/03/26 05:21:01;;;;;;;54.03;35.60;;;6.40;99.90;;;;;;5021662;28;20235;-55
2021/03/26 05:23:54;;;;;;;53.30;34.67;;;6.40;99.90;;;;;;4995495;28;20233;-54
2021/03/26 05:26:41;;;;;;;57.00;34.87;;;6.40;99.90;;;;;;4999340;28;20229;-54
2021/03/26 05:29:29;;;;;;;58.33;36.10;;;6.30;99.90;;;;;;4996133;28;20295;-55
2021/03/26 05:32:08;;;;;;;59.80;37.03;;;6.30;99.90;;;;;;5014809;28;20241;-54
2021/03/26 05:35:03;;;;;;;56.60;35.50;;;6.30;99.90;;;;;;5002467;28;20240;-53
2021/03/26 05:37:52;;;;;;;58.07;35.90;;;6.30;99.90;;;;;;5015404;28;20304;-54
2021/03/26 05:41:04;;;;;;;59.30;36.90;;;6.30;99.90;;;;;;4980842;28;20248;-54
2021/03/26 05:44:16;;;;;;;60.63;36.67;;;6.30;99.90;;;;;;4987439;28;20225;-56
2021/03/26 05:47:09;;;;;;;58.20;35.73;;;6.40;99.90;;;;;;4997098;28;20512;-55
2021/03/26 05:50:03;;;;;;;61.27;38.33;;;6.40;99.90;;;;;;5011794;28;20794;-55
2021/03/26 05:52:47;;;;;;;57.87;35.90;;;6.40;99.90;;;;;;5001819;28;20324;-55
2021/03/26 05:55:39;;;;;;;59.30;37.83;;;6.40;99.90;;;;;;4986073;28;20321;-56
2021/03/26 05:58:21;;;;;;;62.37;37.83;;;6.50;99.90;;;;;;4989785;28;20238;-53
2021/03/26 06:01:27;;;;;;;56.93;37.37;;;6.50;99.90;;;;;;5008766;28;20229;-54
2021/03/26 06:04:49;;;;;;;61.00;36.93;;;6.50;99.90;;;;;;4995793;28;20600;-55
2021/03/26 06:08:14;;;;;;;57.80;37.10;;;6.60;99.90;;;;;;4998191;28;20244;-56
2021/03/26 06:11:38;;;;;;;58.00;37.93;;;6.60;99.90;;;;;;4988943;28;20395;-54
2021/03/26 06:15:36;;;;;;;60.20;37.83;;;6.70;99.90;;;;;;4983391;28;20314;-56
2021/03/26 06:18:49;;;;;;;60.33;36.30;;;6.80;99.90;;;;;;4936475;28;20315;-55
2021/03/26 06:21:49;;;;;;;58.47;37.40;;;6.90;99.90;;;;;;4996716;28;20236;-55
2021/03/26 06:25:38;;;;;;;60.87;38.23;;;6.90;99.90;;;;;;4989194;28;20238;-54
2021/03/26 06:28:21;;;;;;;58.40;38.33;;;7.00;99.90;;;;;;5004583;28;20600;-55
2021/03/26 06:31:14;;;;;;;64.77;39.80;;;7.10;99.90;;;;;;5011753;28;20260;-54
2021/03/26 06:35:20;;;;;;;59.87;39.40;;;7.30;99.90;;;;;;5019633;28;20331;-56
2021/03/26 06:38:43;;;;;;;59.40;38.50;;;7.40;99.90;;;;;;4999855;28;20693;-56
2021/03/26 06:41:17;;;;;;;59.33;39.50;;;7.60;99.90;;;;;;5000973;28;20245;-55
2021/03/26 06:44:40;;;;;;;56.47;38.77;;;7.70;99.90;;;;;;5020406;28;20252;-56
2021/03/26 06:47:12;;;;;;;60.43;39.67;;;7.80;99.90;;;;;;4996931;28;20605;-56
2021/03/26 06:49:56;;;;;;;55.53;38.57;;;8.00;99.90;;;;;;4996191;28;20244;-54
2021/03/26 06:52:49;;;;;;;56.93;39.83;;;8.10;99.90;;;;;;4998988;28;20233;-56
2021/03/26 06:55:44;;;;;;;57.87;40.47;;;8.20;99.90;;;;;;4990150;28;20324;-55
2021/03/26 06:58:48;;;;;;;61.03;40.27;;;8.40;99.90;;;;;;4994081;28;20242;-56
2021/03/26 07:01:49;;;;;;;59.50;41.27;;;8.50;99.90;;;;;;4979249;28;20718;-55
2021/03/26 07:04:49;;;;;;;58.43;38.83;;;8.60;99.90;;;;;;4988489;28;20705;-56
2021/03/26 07:08:03;;;;;;;56.43;41.03;;;8.80;99.90;;;;;;4986717;28;20242;-54
2021/03/26 07:10:58;;;;;;;53.67;39.17;;;8.90;99.90;;;;;;4985772;28;20826;-56
2021/03/26 07:14:08;;;;;;;54.83;39.10;;;9.20;99.90;;;;;;4986942;28;21267;-55
2021/03/26 07:17:17;;;;;;;54.47;39.47;;;9.50;99.90;;;;;;4999131;28;20225;-55
2021/03/26 07:20:21;;;;;;;53.70;38.40;;;9.60;99.90;;;;;;4972096;28;20246;-54
2021/03/26 07:23:51;;;;;;;50.93;38.03;;;9.90;99.90;;;;;;4998724;28;20238;-55
2021/03/26 07:26:44;;;;;;;47.03;35.90;;;10.10;99.90;;;;;;4990903;28;20237;-54
2021/03/26 07:29:30;;;;;;;51.50;39.30;;;10.20;99.90;;;;;;5004857;28;20722;-54
2021/03/26 07:32:39;;;;;;;51.67;38.77;;;10.30;99.90;;;;;;5008155;28;20268;-54
2021/03/26 07:35:43;;;;;;;53.10;38.77;;;10.40;99.90;;;;;;4993597;28;20270;-54
2021/03/26 07:39:13;;;;;;;46.93;37.60;;;10.60;99.90;;;;;;4986440;28;20238;-54
2021/03/26 07:42:29;;;;;;;46.27;36.13;;;10.70;99.90;;;;;;4980531;28;20294;-55
2021/03/26 07:45:23;;;;;;;46.33;35.87;;;10.80;99.90;;;;;;4915016;28;20246;-56
2021/03/26 07:48:21;;;;;;;50.20;37.37;;;10.90;99.90;;;;;;4907165;29;20534;-53
2021/03/26 07:50:57;;;;;;;47.80;36.30;;;11.10;99.90;;;;;;4984193;28;20317;-56
2021/03/26 07:53:59;;;;;;;44.87;35.57;;;11.40;99.90;;;;;;4980228;28;20243;-57
2021/03/26 07:56:49;;;;;;;43.60;34.90;;;11.60;99.90;;;;;;4969278;28;20246;-56
2021/03/26 08:00:06;;;;;;;46.33;34.70;;;11.70;99.90;;;;;;4987203;28;20680;-55
2021/03/26 08:02:50;;;;;;;41.63;32.70;;;11.90;99.90;;;;;;4988065;28;20240;-56
2021/03/26 08:05:25;;;;;;;45.00;35.03;;;11.80;99.90;;;;;;4987919;28;20247;-57
2021/03/26 08:08:28;;;;;;;42.03;34.80;;;11.80;99.90;;;;;;4988105;28;20246;-57
2021/03/26 08:11:00;;;;;;;41.53;32.57;;;11.70;99.90;;;;;;4999012;28;20281;-57
2021/03/26 08:14:00;;;;;;;42.50;33.57;;;11.80;99.90;;;;;;5001064;28;20234;-54
2021/03/26 08:17:17;;;;;;;40.87;31.33;;;12.00;99.90;;;;;;4998575;28;20651;-53
2021/03/26 08:20:13;;;;;;;41.57;32.23;;;12.10;99.90;;;;;;5005985;28;20243;-54
2021/03/26 08:22:54;;;;;;;40.43;32.27;;;12.50;99.90;;;;;;5011571;28;20239;-56
2021/03/26 08:25:43;;;;;;;42.07;32.13;;;12.60;99.90;;;;;;5008883;28;20748;-56
2021/03/26 08:28:28;;;;;;;38.57;30.03;;;12.80;99.90;;;;;;5009095;28;20236;-55
2021/03/26 08:31:14;;;;;;;39.93;30.33;;;12.90;99.90;;;;;;4995352;28;20240;-57
2021/03/26 08:34:14;;;;;;;35.30;29.60;;;13.10;99.90;;;;;;4986658;28;20243;-56
2021/03/26 08:36:46;;;;;;;34.50;28.50;;;13.10;99.90;;;;;;4981790;28;20245;-56
2021/03/26 08:39:40;;;;;;;34.00;28.93;;;13.10;99.90;;;;;;4997134;28;20305;-55
2021/03/26 08:42:21;;;;;;;33.80;28.13;;;13.20;99.90;;;;;;5002029;28;20248;-54
2021/03/26 08:44:55;;;;;;;31.93;26.77;;;13.20;99.90;;;;;;5009917;28;20236;-54
2021/03/26 08:47:37;;;;;;;36.17;27.63;;;13.00;99.90;;;;;;5010400;28;20711;-55
2021/03/26 08:50:31;;;;;;;35.93;28.37;;;13.10;99.90;;;;;;5009344;28;20235;-56
2021/03/26 08:53:14;;;;;;;31.97;26.30;;;13.50;99.90;;;;;;5000562;28;20407;-55
2021/03/26 08:56:00;;;;;;;33.80;27.07;;;13.50;99.90;;;;;;5013149;28;20239;-57
2021/03/26 08:59:08;;;;;;;29.40;23.83;;;13.70;99.90;;;;;;5028879;28;20661;-54
2021/03/26 09:01:57;;;;;;;29.53;22.87;;;13.70;99.90;;;;;;5019383;28;20263;-54
2021/03/26 09:04:45;;;;;;;28.70;22.87;;;14.00;99.90;;;;;;5009654;28;20244;-57
2021/03/26 09:07:26;;;;;;;26.57;21.83;;;14.10;99.90;;;;;;5008806;28;20302;-56
2021/03/26 09:10:13;;;;;;;27.10;21.73;;;14.20;99.90;;;;;;5002109;28;20232;-54
2021/03/26 09:13:07;;;;;;;25.03;20.97;;;14.30;99.90;;;;;;4995238;28;20238;-54
2021/03/26 09:16:04;;;;;;;24.97;19.90;;;14.60;99.90;;;;;;5009814;28;20247;-55
2021/03/26 09:18:54;;;;;;;21.73;17.47;;;14.70;99.90;;;;;;4972776;28;20552;-54
2021/03/26 09:21:39;;;;;;;21.67;17.07;;;14.60;99.90;;;;;;5013689;28;20234;-56
2021/03/26 09:24:47;;;;;;;21.03;16.27;;;14.50;99.90;;;;;;5002628;28;20265;-58
2021/03/26 09:27:25;;;;;;;20.50;16.17;;;14.50;99.90;;;;;;4980826;28;20233;-54
2021/03/26 09:30:18;;;;;;;20.07;15.47;;;14.80;99.90;;;;;;4995089;28;20238;-56
2021/03/26 09:32:50;;;;;;;20.27;14.77;;;15.10;99.90;;;;;;4998476;28;20338;-55
2021/03/26 09:35:23;;;;;;;21.10;16.13;;;15.30;99.90;;;;;;5000716;28;20262;-57
2021/03/26 09:37:57;;;;;;;18.43;15.40;;;15.50;99.90;;;;;;5000056;28;20226;-54
2021/03/26 09:40:36;;;;;;;21.07;15.90;;;15.40;99.90;;;;;;5001190;28;20255;-56
2021/03/26 09:43:17;;;;;;;18.40;14.93;;;15.50;99.90;;;;;;5000127;28;20272;-54
2021/03/26 09:46:00;;;;;;;19.33;13.60;;;15.50;99.90;;;;;;5000031;28;20241;-53
2021/03/26 09:48:52;;;;;;;19.53;14.47;;;15.20;99.90;;;;;;5004751;28;20292;-52
2021/03/26 09:51:31;;;;;;;16.73;13.07;;;14.80;99.90;;;;;;4999916;28;20329;-54
2021/03/26 09:54:13;;;;;;;15.60;12.87;;;15.00;99.90;;;;;;5000085;28;20229;-56
2021/03/26 09:56:48;;;;;;;16.73;12.70;;;15.00;99.90;;;;;;5000094;28;20266;-55
2021/03/26 09:59:28;;;;;;;17.67;12.30;;;14.90;99.90;;;;;;4979057;28;20713;-56
2021/03/26 10:02:18;;;;;;;16.70;13.13;;;14.70;99.90;;;;;;4994435;28;20643;-57
2021/03/26 10:04:58;;;;;;;19.40;13.70;;;14.70;99.90;;;;;;4984477;28;20735;-53
2021/03/26 10:07:37;;;;;;;19.03;13.10;;;14.60;99.90;;;;;;5002368;28;20593;-56
2021/03/26 10:13:13;;;;;;;18.37;13.93;;;14.70;99.90;;;;;;5006159;28;20590;-52
2021/03/26 10:15:45;;;;;;;17.13;12.70;;;14.80;99.90;;;;;;4986352;28;20731;-52
2021/03/26 10:18:17;;;;;;;14.33;11.77;;;14.70;99.90;;;;;;4982834;28;20238;-55
2021/03/26 10:20:51;;;;;;;17.77;14.00;;;14.60;99.90;;;;;;4998897;28;20259;-56
2021/03/26 10:23:35;;;;;;;17.43;12.07;;;14.60;99.90;;;;;;4999840;28;20233;-57
2021/03/26 10:26:14;;;;;;;13.23;11.10;;;14.30;99.90;;;;;;4998710;28;20226;-52
2021/03/26 10:29:12;;;;;;;15.00;11.10;;;14.30;99.90;;;;;;4999619;28;20233;-54
2021/03/26 10:31:42;;;;;;;15.50;11.10;;;14.30;99.90;;;;;;4998318;28;20732;-55
2021/03/26 10:34:13;;;;;;;11.87;9.93;;;14.00;99.90;;;;;;4983941;28;20249;-57
2021/03/26 10:36:50;;;;;;;13.30;10.27;;;14.00;99.90;;;;;;4989791;28;20234;-54
2021/03/26 10:39:22;;;;;;;12.77;9.23;;;14.00;99.90;;;;;;4977572;28;20257;-52
2021/03/26 10:42:12;;;;;;;13.10;9.60;;;14.00;99.90;;;;;;4982181;28;20243;-52
2021/03/26 10:45:05;;;;;;;13.30;9.30;;;13.90;99.90;;;;;;5003381;28;20718;-54
2021/03/26 10:47:43;;;;;;;14.63;9.80;;;13.80;99.90;;;;;;5006670;28;20237;-55
2021/03/26 10:50:35;;;;;;;13.97;10.37;;;13.80;99.90;;;;;;5003764;28;20240;-52
2021/03/26 10:53:08;;;;;;;14.33;9.57;;;14.00;99.90;;;;;;4996524;28;20246;-52
2021/03/26 10:55:46;;;;;;;14.63;10.10;;;14.10;99.90;;;;;;4999478;28;20283;-54
2021/03/26 10:58:32;;;;;;;11.67;9.57;;;14.10;99.90;;;;;;5004142;28;20253;-52
2021/03/26 11:01:06;;;;;;;15.50;11.47;;;14.20;99.90;;;;;;5002407;28;20762;-55
2021/03/26 11:03:44;;;;;;;13.67;10.90;;;14.20;99.90;;;;;;4994837;28;20319;-53
2021/03/26 11:06:24;;;;;;;14.57;10.83;;;14.30;99.90;;;;;;4990781;28;20295;-55
2021/03/26 11:08:58;;;;;;;14.17;11.63;;;14.30;99.90;;;;;;5003784;28;20331;-54
2021/03/26 11:11:34;;;;;;;13.73;11.10;;;14.30;99.90;;;;;;5002558;28;20283;-53
2021/03/26 11:14:28;;;;;;;16.77;11.13;;;14.40;99.90;;;;;;5001748;28;20244;-53
2021/03/26 11:17:19;;;;;;;13.37;11.57;;;14.60;99.90;;;;;;4999647;28;20265;-54
2021/03/26 11:20:19;;;;;;;16.43;12.83;;;14.50;99.90;;;;;;4991028;28;20234;-52
2021/03/26 11:22:57;;;;;;;17.43;12.90;;;14.50;99.90;;;;;;5005536;28;20291;-56
2021/03/26 11:25:35;;;;;;;17.20;12.73;;;14.50;99.90;;;;;;5007562;28;20272;-53
2021/03/26 11:28:13;;;;;;;15.87;12.03;;;14.60;99.90;;;;;;5004653;28;20257;-54
2021/03/26 11:30:57;;;;;;;15.67;12.80;;;14.70;99.90;;;;;;5001985;28;20232;-54
2021/03/26 11:33:43;;;;;;;17.23;13.83;;;14.90;99.90;;;;;;5002286;28;20234;-53
2021/03/26 11:36:44;;;;;;;15.17;13.00;;;14.60;99.90;;;;;;5002963;28;20777;-56
2021/03/26 11:39:33;;;;;;;17.33;13.10;;;14.70;99.90;;;;;;4997809;28;20332;-52
2021/03/26 11:42:33;;;;;;;16.60;13.23;;;15.10;99.90;;;;;;4998508;28;20248;-54
2021/03/26 11:45:06;;;;;;;17.47;14.67;;;15.30;99.90;;;;;;4977480;28;20295;-55
2021/03/26 11:47:37;;;;;;;17.47;14.40;;;15.30;99.90;;;;;;5000877;28;20368;-52
2021/03/26 11:50:23;;;;;;;17.60;13.73;;;15.60;99.90;;;;;;5001087;28;20269;-52
2021/03/26 11:53:19;;;;;;;18.53;14.67;;;15.90;99.90;;;;;;4986652;28;20249;-54
2021/03/26 11:56:05;;;;;;;17.73;14.03;;;16.00;99.90;;;;;;4988317;28;20610;-57
2021/03/26 11:58:43;;;;;;;15.47;12.53;;;16.00;99.90;;;;;;4989973;28;20590;-55
2021/03/26 12:01:11;;;;;;;12.97;11.57;;;15.90;99.90;;;;;;4989654;28;20254;-54
2021/03/26 12:03:46;;;;;;;12.73;11.30;;;15.80;99.90;;;;;;4994861;28;20245;-56
2021/03/26 12:06:25;;;;;;;13.33;11.33;;;16.10;99.90;;;;;;4994899;28;20279;-53
2021/03/26 12:09:09;;;;;;;12.40;11.03;;;16.20;99.90;;;;;;4995147;28;20787;-55
2021/03/26 12:11:58;;;;;;;14.13;11.30;;;16.10;99.90;;;;;;4999191;28;20304;-56
2021/03/26 12:14:30;;;;;;;13.33;11.43;;;16.00;99.90;;;;;;5002354;28;20299;-54
2021/03/26 12:17:04;;;;;;;12.50;10.77;;;15.90;99.90;;;;;;5001538;28;20241;-55
2021/03/26 12:19:34;;;;;;;12.53;10.47;;;16.00;99.90;;;;;;5010084;28;20249;-52
2021/03/26 12:22:13;;;;;;;11.53;10.13;;;15.90;99.90;;;;;;5008465;28;20328;-55
2021/03/26 12:24:48;;;;;;;13.03;10.70;;;15.80;99.90;;;;;;4992811;28;20748;-56
2021/03/26 12:27:26;;;;;;;13.23;11.60;;;15.90;99.90;;;;;;5008386;28;20272;-55
2021/03/26 12:29:59;;;;;;;12.70;10.83;;;16.10;99.90;;;;;;5003222;28;20319;-56
2021/03/26 12:32:35;;;;;;;12.57;11.27;;;16.10;99.90;;;;;;4999641;28;20801;-56
2021/03/26 12:35:19;;;;;;;12.47;10.33;;;15.70;99.90;;;;;;4994237;28;20237;-56
2021/03/26 12:37:59;;;;;;;12.57;11.27;;;15.60;99.90;;;;;;4988601;28;20812;-53
2021/03/26 12:41:07;;;;;;;18.27;11.57;;;15.80;99.90;;;;;;4990748;28;20719;-55
2021/03/26 12:43:46;;;;;;;12.23;10.43;;;16.10;99.90;;;;;;4984487;28;20241;-56
2021/03/26 12:46:43;;;;;;;12.13;10.10;;;16.20;99.90;;;;;;4993830;28;20392;-55
2021/03/26 12:49:18;;;;;;;12.20;9.57;;;16.10;99.90;;;;;;4997447;28;20718;-56
2021/03/26 12:51:52;;;;;;;13.77;10.47;;;16.10;99.90;;;;;;4996651;28;20240;-57
2021/03/26 12:54:28;;;;;;;13.30;11.63;;;16.20;99.90;;;;;;4995946;28;20245;-56
2021/03/26 12:57:04;;;;;;;13.03;11.53;;;16.00;99.90;;;;;;4998556;28;20570;-56
2021/03/26 12:59:36;;;;;;;15.70;11.43;;;16.00;99.90;;;;;;4997023;28;20248;-55
2021/03/26 13:02:17;;;;;;;14.43;11.70;;;15.80;99.90;;;;;;4996595;28;20728;-56
2021/03/26 13:04:57;;;;;;;16.57;13.70;;;15.70;99.90;;;;;;4994890;28;20248;-57
2021/03/26 13:07:37;;;;;;;15.73;12.60;;;15.70;99.90;;;;;;4997523;28;20695;-58
2021/03/26 13:10:32;;;;;;;21.20;16.13;;;15.60;99.90;;;;;;4997892;28;20237;-57
2021/03/26 13:13:10;;;;;;;20.33;15.17;;;15.70;99.90;;;;;;4963502;28;20242;-56
2021/03/26 13:15:41;;;;;;;19.30;17.03;;;15.80;99.90;;;;;;4957239;28;20246;-56
2021/03/26 13:18:12;;;;;;;18.33;16.37;;;16.00;99.90;;;;;;4961549;28;20353;-57
2021/03/26 13:20:56;;;;;;;19.63;16.27;;;16.20;99.90;;;;;;4959497;28;20345;-54
2021/03/26 13:23:30;;;;;;;19.50;17.50;;;16.20;99.90;;;;;;4971219;28;20327;-57
2021/03/26 13:26:01;;;;;;;23.43;19.33;;;16.20;99.90;;;;;;4964973;28;20736;-57
2021/03/26 13:28:33;;;;;;;22.80;19.50;;;16.30;99.90;;;;;;4965578;28;20730;-56
2021/03/26 13:31:06;;;;;;;22.17;18.53;;;16.20;99.90;;;;;;4993286;28;20233;-57
2021/03/26 13:33:46;;;;;;;21.10;18.83;;;16.20;99.90;;;;;;5004743;28;20249;-55
2021/03/26 13:36:38;;;;;;;20.97;18.77;;;16.30;99.90;;;;;;5018802;28;20234;-57
2021/03/26 13:39:31;;;;;;;25.67;19.00;;;16.10;99.90;;;;;;4983438;28;20332;-56
2021/03/26 13:42:07;;;;;;;21.03;18.87;;;15.90;99.90;;;;;;4976493;28;20293;-57
2021/03/26 13:44:54;;;;;;;22.30;17.97;;;15.90;99.90;;;;;;4986295;28;20280;-57
2021/03/26 13:47:30;;;;;;;23.00;19.77;;;15.80;99.90;;;;;;4986975;28;20690;-57
2021/03/26 13:50:10;;;;;;;22.23;17.47;;;15.70;99.90;;;;;;4996667;28;20295;-55
2021/03/26 13:52:45;;;;;;;20.77;17.93;;;15.60;99.90;;;;;;4996603;28;20268;-56
2021/03/26 13:55:35;;;;;;;19.47;17.37;;;15.70;99.90;;;;;;5006732;28;20299;-57
2021/03/26 13:58:30;;;;;;;19.50;17.47;;;15.90;99.90;;;;;;4999933;28;20279;-57
2021/03/26 14:01:08;;;;;;;19.27;16.97;;;16.00;99.90;;;;;;5000828;28;20233;-57